Wakeman, Ohio
Current Conditions -  °F | °C
As of 2:53 PM on Wednesday 26 Nov 2014 (Local Time) from KLPR Reporting Station
Overcast Overcast  
Wind Chill: 31°   Ceiling: 3500
Heat Index: 35°   Visibility: 10mi
Dew Point: 25°   Wind: 5mph
Humidity: 67%   Direction: 260°W
Pressure: 30.06"   Gusts: NA
Location:  41.25°N, 82.4°W
Report Text: KLPR 261953Z AUTO 26004KT 10SM OVC035 02/M04 A3006 RMK AO2 SLP185 T00171039 TSNO
Loading
Personal Weather Stations






























Interactive Weather Map New forecast layout! Learn more

10-Day Weather Forecast

Advertisements
Track Severe Weather on mobile